Time;durP1;ratioP1;P1;durP2;ratioP2;P2;SDS_P1;SDS_P2;PMS_P1;PMS_P2;Temp;Humidity;BMP_temperature;BMP_pressure;BME280_temperature;BME280_humidity;BME280_pressure;Samples;Min_cycle;Max_cycle;Signal;HPM_P1;HPM_P2
2023/07/08 00:01:13;;;;;;;10.00;2.95;;;;;;;17.92;100.00;99290.59;4955096;28;20094;-75
2023/07/08 00:03:39;;;;;;;9.05;3.58;;;;;;;17.94;100.00;99286.69;4933568;29;20034;-75
2023/07/08 00:06:13;;;;;;;8.10;3.92;;;;;;;17.98;100.00;99281.72;4949749;28;20031;-75
2023/07/08 00:08:39;;;;;;;9.48;3.35;;;;;;;17.98;100.00;99287.88;4949427;29;20039;-75
2023/07/08 00:11:11;;;;;;;7.80;3.08;;;;;;;18.06;100.00;99278.72;4965490;28;20501;-76
2023/07/08 00:13:36;;;;;;;8.93;3.60;;;;;;;18.08;100.00;99267.81;4965384;28;20027;-75
2023/07/08 00:16:02;;;;;;;8.05;3.75;;;;;;;18.12;100.00;99263.69;4933845;29;20175;-74
2023/07/08 00:18:28;;;;;;;7.40;3.45;;;;;;;18.08;100.00;99270.50;4958928;28;20413;-76
2023/07/08 00:20:54;;;;;;;6.45;3.60;;;;;;;18.08;100.00;99260.63;4965590;28;20035;-76
2023/07/08 00:23:23;;;;;;;9.15;3.63;;;;;;;18.09;100.00;99253.41;4949070;29;20035;-76
2023/07/08 00:25:49;;;;;;;14.07;3.58;;;;;;;18.08;100.00;99244.56;4949540;29;20406;-75
2023/07/08 00:28:17;;;;;;;10.40;3.35;;;;;;;18.09;100.00;99243.53;4965432;28;20042;-75
2023/07/08 00:30:43;;;;;;;6.13;3.40;;;;;;;18.07;100.00;99228.75;4949318;28;20062;-75
2023/07/08 00:33:09;;;;;;;8.43;4.13;;;;;;;18.08;100.00;99225.84;4949225;29;20031;-76
2023/07/08 00:35:41;;;;;;;9.68;3.78;;;;;;;18.14;100.00;99239.41;4949317;28;20581;-76
2023/07/08 00:38:19;;;;;;;7.60;3.83;;;;;;;18.15;100.00;99228.50;4948787;28;20105;-76
2023/07/08 00:40:57;;;;;;;9.40;3.85;;;;;;;18.14;100.00;99224.16;4949376;28;20541;-81
2023/07/08 00:43:38;;;;;;;9.65;4.10;;;;;;;18.16;100.00;99229.28;4961104;28;20063;-81
2023/07/08 00:46:31;;;;;;;10.38;3.83;;;;;;;18.18;100.00;99203.97;4951084;28;20578;-77
2023/07/08 00:49:14;;;;;;;14.35;4.05;;;;;;;18.14;100.00;99215.34;4951476;28;20488;-75
2023/07/08 00:51:40;;;;;;;8.68;3.35;;;;;;;18.13;100.00;99211.03;4924398;29;20028;-76
2023/07/08 00:54:13;;;;;;;8.57;3.83;;;;;;;18.13;100.00;99203.00;4953206;28;20050;-76
2023/07/08 00:56:47;;;;;;;14.63;3.80;;;;;;;18.16;100.00;99202.53;4950907;28;20485;-75
2023/07/08 00:59:19;;;;;;;9.10;4.30;;;;;;;18.06;100.00;99197.72;4952120;28;20038;-76
2023/07/08 01:01:46;;;;;;;8.30;3.55;;;;;;;18.03;100.00;99201.66;4949528;28;20027;-76
2023/07/08 01:04:18;;;;;;;13.45;4.13;;;;;;;18.10;100.00;99201.56;4969352;28;20026;-76
2023/07/08 01:06:57;;;;;;;9.88;3.88;;;;;;;18.08;100.00;99196.44;4959062;28;20113;-76
2023/07/08 01:09:38;;;;;;;8.10;3.42;;;;;;;18.08;100.00;99196.44;4925988;28;20061;-75
2023/07/08 01:12:08;;;;;;;14.40;4.15;;;;;;;18.03;100.00;99193.63;4924873;29;20031;-75
2023/07/08 01:14:38;;;;;;;18.85;4.35;;;;;;;18.01;100.00;99184.19;4960604;28;20066;-76
2023/07/08 01:17:04;;;;;;;13.25;4.78;;;;;;;18.00;100.00;99183.38;4964766;28;20034;-76
2023/07/08 01:19:34;;;;;;;9.60;3.65;;;;;;;18.03;100.00;99184.81;4952544;28;20429;-76
2023/07/08 01:22:05;;;;;;;10.60;3.53;;;;;;;17.97;100.00;99184.66;4969396;28;20111;-76
2023/07/08 01:24:34;;;;;;;8.63;3.50;;;;;;;18.00;100.00;99183.38;4941735;28;20389;-75
2023/07/08 01:27:02;;;;;;;14.80;4.13;;;;;;;18.02;100.00;99183.97;4953007;28;20035;-76
2023/07/08 01:29:29;;;;;;;9.65;4.10;;;;;;;18.01;100.00;99178.84;4964586;28;20036;-76
2023/07/08 01:31:56;;;;;;;17.88;3.90;;;;;;;17.96;100.00;99174.97;4944265;28;20466;-76
2023/07/08 01:34:23;;;;;;;9.25;3.97;;;;;;;17.91;100.00;99174.88;4935795;28;20579;-76
2023/07/08 01:36:53;;;;;;;12.02;3.40;;;;;;;17.94;100.00;99163.72;4945099;28;20088;-75
2023/07/08 01:39:21;;;;;;;9.43;3.40;;;;;;;17.93;100.00;99159.41;4955616;28;20049;-76
2023/07/08 01:41:48;;;;;;;9.70;3.28;;;;;;;17.89;100.00;99176.09;4949531;28;20073;-75
2023/07/08 01:44:40;;;;;;;14.32;3.72;;;;;;;17.88;100.00;99169.97;4954332;28;20063;-76
2023/07/08 01:47:22;;;;;;;8.20;2.97;;;;;;;17.85;100.00;99170.41;4951783;28;20050;-76
2023/07/08 01:49:48;;;;;;;10.23;3.42;;;;;;;17.81;100.00;99158.53;4954198;28;20058;-76
2023/07/08 01:52:17;;;;;;;11.88;4.50;;;;;;;17.79;100.00;99148.06;4931025;28;20112;-76
2023/07/08 01:54:43;;;;;;;15.38;4.28;;;;;;;17.74;100.00;99131.91;4938132;28;20039;-76
2023/07/08 01:57:09;;;;;;;13.80;4.32;;;;;;;17.70;100.00;99134.19;4956201;28;20101;-76
2023/07/08 01:59:35;;;;;;;8.07;3.45;;;;;;;17.69;100.00;99121.88;4956688;28;20152;-81
2023/07/08 02:02:01;;;;;;;10.85;3.90;;;;;;;17.68;100.00;99116.72;4940169;28;20078;-81
2023/07/08 02:04:30;;;;;;;9.40;3.70;;;;;;;17.63;100.00;99117.41;4956896;28;20121;-75
2023/07/08 02:06:59;;;;;;;12.95;4.18;;;;;;;17.66;100.00;99114.28;4925460;28;20070;-77
2023/07/08 02:09:25;;;;;;;9.68;4.07;;;;;;;17.67;100.00;99120.47;4965727;28;20030;-76
2023/07/08 02:11:52;;;;;;;9.20;3.80;;;;;;;17.64;100.00;99113.72;4973516;28;20106;-76
2023/07/08 02:14:19;;;;;;;10.43;4.53;;;;;;;17.60;100.00;99116.00;4972690;28;20034;-76
2023/07/08 02:16:44;;;;;;;13.43;3.90;;;;;;;17.59;100.00;99108.22;4936994;28;20030;-76
2023/07/08 02:19:11;;;;;;;7.90;3.78;;;;;;;17.60;100.00;99102.66;4954234;28;20070;-76
2023/07/08 02:21:38;;;;;;;12.20;4.00;;;;;;;17.54;100.00;99090.19;4956784;28;20650;-75
2023/07/08 02:24:05;;;;;;;10.23;4.45;;;;;;;17.57;100.00;99091.59;4951970;28;20046;-77
2023/07/08 02:26:33;;;;;;;15.15;4.57;;;;;;;17.50;100.00;99088.19;4968817;28;20035;-76
2023/07/08 02:29:00;;;;;;;8.00;4.68;;;;;;;17.48;100.00;99086.56;4959115;28;20027;-76
2023/07/08 02:31:26;;;;;;;8.55;4.15;;;;;;;17.45;100.00;99086.19;4977622;28;20031;-76
2023/07/08 02:33:53;;;;;;;10.98;4.45;;;;;;;17.45;100.00;99081.69;4926153;28;20358;-76
2023/07/08 02:36:19;;;;;;;12.52;4.68;;;;;;;17.40;100.00;99080.69;4954853;28;20030;-76
2023/07/08 02:38:45;;;;;;;8.45;3.88;;;;;;;17.34;100.00;99083.22;4939217;28;20033;-76
2023/07/08 02:41:12;;;;;;;10.43;4.60;;;;;;;17.30;100.00;99066.03;4939295;28;20026;-76
2023/07/08 02:43:38;;;;;;;14.13;4.88;;;;;;;17.27;100.00;99062.97;4943312;28;20082;-76
2023/07/08 02:46:05;;;;;;;7.53;3.47;;;;;;;17.23;100.00;99058.06;4974935;28;20027;-76
2023/07/08 02:48:31;;;;;;;8.85;3.85;;;;;;;17.17;100.00;99045.63;4962030;28;20528;-75
2023/07/08 02:51:04;;;;;;;10.38;4.32;;;;;;;17.15;100.00;99030.88;4940118;28;20062;-76
2023/07/08 02:53:30;;;;;;;8.25;3.75;;;;;;;17.12;100.00;99032.13;4953227;28;20105;-77
2023/07/08 02:55:56;;;;;;;13.73;3.85;;;;;;;17.10;100.00;99043.00;4972463;28;20038;-76
2023/07/08 02:58:22;;;;;;;10.55;3.80;;;;;;;17.06;100.00;99039.13;4922442;28;20374;-76
2023/07/08 03:00:53;;;;;;;10.43;3.80;;;;;;;17.09;100.00;99046.72;4922945;28;20035;-76
2023/07/08 03:03:19;;;;;;;9.85;3.40;;;;;;;16.99;100.00;99039.19;4954125;28;20377;-76
2023/07/08 03:05:55;;;;;;;9.60;3.42;;;;;;;17.06;100.00;99032.97;4970687;28;20042;-75
2023/07/08 03:08:21;;;;;;;9.63;3.83;;;;;;;16.96;100.00;99041.53;4970594;28;20113;-76
2023/07/08 03:10:56;;;;;;;7.57;3.22;;;;;;;17.05;100.00;99058.03;4954514;28;20093;-76
2023/07/08 03:13:23;;;;;;;7.30;3.13;;;;;;;17.06;100.00;99057.00;4955368;28;20114;-76
2023/07/08 03:15:50;;;;;;;11.07;3.80;;;;;;;17.09;100.00;99060.06;4952379;28;20413;-81
2023/07/08 03:18:16;;;;;;;9.48;3.55;;;;;;;17.08;100.00;99052.28;4935840;29;20126;-82
2023/07/08 03:20:44;;;;;;;7.90;3.00;;;;;;;17.08;100.00;99054.97;4953034;28;20461;-76
2023/07/08 03:23:12;;;;;;;9.38;3.67;;;;;;;17.13;100.00;99052.44;4971391;28;20033;-76
2023/07/08 03:25:38;;;;;;;6.68;2.83;;;;;;;17.09;100.00;99037.91;4976324;28;20035;-76
2023/07/08 03:28:06;;;;;;;11.20;3.08;;;;;;;17.05;100.00;99039.38;4953836;28;20040;-76
2023/07/08 03:30:33;;;;;;;8.30;3.83;;;;;;;17.05;100.00;99034.84;4953724;28;20038;-75
2023/07/08 03:33:00;;;;;;;10.77;3.13;;;;;;;17.07;100.00;99031.97;4963109;28;20031;-77
2023/07/08 03:35:26;;;;;;;7.15;3.50;;;;;;;17.07;100.00;99024.75;4941804;28;20023;-76
2023/07/08 03:37:52;;;;;;;8.65;2.47;;;;;;;17.09;100.00;99043.25;4952484;28;20519;-76
2023/07/08 03:40:18;;;;;;;8.65;2.63;;;;;;;17.08;100.00;99037.09;4964650;28;20565;-77
2023/07/08 03:42:44;;;;;;;6.53;2.78;;;;;;;17.13;100.00;99046.28;4944893;28;20034;-76
2023/07/08 03:45:11;;;;;;;4.40;2.30;;;;;;;17.14;100.00;99047.94;4953686;28;20030;-76
2023/07/08 03:47:37;;;;;;;4.65;2.30;;;;;;;17.15;100.00;99044.22;4958312;28;20026;-76
2023/07/08 03:50:03;;;;;;;7.72;3.00;;;;;;;17.15;100.00;99039.72;4938223;28;20035;-76
2023/07/08 03:52:29;;;;;;;8.40;3.17;;;;;;;17.18;100.00;99051.78;4951039;28;20027;-76
2023/07/08 03:54:56;;;;;;;6.18;2.35;;;;;;;17.20;100.00;99034.50;4957749;28;20042;-77
2023/07/08 03:57:22;;;;;;;6.75;2.80;;;;;;;17.20;100.00;99045.16;4953032;28;20499;-77
2023/07/08 03:59:48;;;;;;;6.97;2.72;;;;;;;17.21;100.00;99043.31;4930192;28;20501;-76
2023/07/08 04:02:14;;;;;;;13.60;3.55;;;;;;;17.16;100.00;99052.00;4968000;28;20034;-76
2023/07/08 04:04:40;;;;;;;12.50;3.72;;;;;;;17.20;100.00;99029.16;4941152;28;20041;-75
2023/07/08 04:07:06;;;;;;;10.65;4.43;;;;;;;17.22;100.00;99024.41;4941038;28;20031;-76
2023/07/08 04:09:32;;;;;;;14.07;3.83;;;;;;;17.23;100.00;99007.34;4928451;28;20038;-81
2023/07/08 04:11:59;;;;;;;9.73;3.97;;;;;;;17.24;100.00;99013.50;4958273;28;20125;-77
2023/07/08 04:14:25;;;;;;;13.18;4.18;;;;;;;17.24;100.00;99021.53;4953764;28;20081;-76
2023/07/08 04:16:58;;;;;;;18.25;4.55;;;;;;;17.30;100.00;99019.78;4968062;28;20467;-76
2023/07/08 04:19:24;;;;;;;12.60;3.97;;;;;;;17.27;100.00;99009.56;4953640;28;20085;-81
2023/07/08 04:21:50;;;;;;;19.27;4.53;;;;;;;17.29;100.00;99023.50;4935208;28;20736;-79
2023/07/08 04:24:17;;;;;;;16.48;5.00;;;;;;;17.31;100.00;99026.78;4966426;28;20039;-77
2023/07/08 04:26:46;;;;;;;17.83;5.03;;;;;;;17.30;100.00;99025.13;4950375;28;20046;-77
2023/07/08 04:29:14;;;;;;;13.15;4.97;;;;;;;17.33;100.00;99022.84;4952898;28;20035;-76
2023/07/08 04:31:39;;;;;;;16.92;5.88;;;;;;;17.30;100.00;99019.78;4953362;28;20449;-76
2023/07/08 04:34:06;;;;;;;12.20;4.45;;;;;;;17.28;100.00;99006.66;4937576;28;20034;-75
2023/07/08 04:36:32;;;;;;;14.85;4.40;;;;;;;17.29;100.00;99026.19;4961332;28;20034;-75
2023/07/08 04:38:59;;;;;;;12.55;4.13;;;;;;;17.27;100.00;99034.41;4971256;28;20098;-76
2023/07/08 04:41:26;;;;;;;15.13;4.60;;;;;;;17.27;100.00;99039.75;4942166;28;20031;-77
2023/07/08 04:43:57;;;;;;;11.48;3.72;;;;;;;17.23;100.00;99049.28;4925675;28;20065;-76
2023/07/08 04:46:37;;;;;;;11.25;3.28;;;;;;;17.26;100.00;99056.00;4970017;28;20105;-76
2023/07/08 04:49:04;;;;;;;15.00;3.30;;;;;;;17.20;100.00;99047.03;4953935;28;20106;-77
2023/07/08 04:51:30;;;;;;;18.27;4.07;;;;;;;17.19;100.00;99064.91;4954416;28;20026;-76
2023/07/08 04:53:56;;;;;;;13.23;3.20;;;;;;;17.14;100.00;99058.63;4950967;28;20178;-75
2023/07/08 04:56:23;;;;;;;15.90;3.45;;;;;;;17.16;100.00;99062.69;4951156;28;20478;-76
2023/07/08 04:58:50;;;;;;;18.77;4.30;;;;;;;17.11;100.00;99068.69;4967675;28;20038;-75
2023/07/08 05:01:15;;;;;;;19.15;3.45;;;;;;;17.08;100.00;99087.81;4933944;29;20067;-77
2023/07/08 05:03:41;;;;;;;17.05;4.55;;;;;;;17.04;100.00;99085.78;4934219;29;20035;-77
2023/07/08 05:06:07;;;;;;;13.15;2.97;;;;;;;16.96;100.00;99081.56;4945507;28;20031;-76
2023/07/08 05:08:33;;;;;;;17.58;3.40;;;;;;;16.84;100.00;99090.28;4951509;28;20031;-77
2023/07/08 05:10:59;;;;;;;15.48;3.00;;;;;;;16.82;100.00;99089.66;4952463;28;20038;-77
2023/07/08 05:13:25;;;;;;;22.75;3.55;;;;;;;16.85;100.00;99099.91;4947549;28;20122;-76
2023/07/08 05:15:51;;;;;;;20.77;4.15;;;;;;;16.81;100.00;99096.06;4961338;28;20043;-76
2023/07/08 05:18:16;;;;;;;18.42;3.75;;;;;;;16.80;100.00;99099.75;4969626;28;20054;-76
2023/07/08 05:20:43;;;;;;;20.08;4.38;;;;;;;16.69;100.00;99119.16;4953888;28;20122;-76
2023/07/08 05:23:09;;;;;;;18.85;3.42;;;;;;;16.61;100.00;99093.56;4949706;28;20069;-76
2023/07/08 05:25:35;;;;;;;19.05;3.92;;;;;;;16.57;100.00;99111.00;4966445;28;20047;-77
2023/07/08 05:28:01;;;;;;;14.82;3.47;;;;;;;16.51;100.00;99109.22;4942501;29;20043;-76
2023/07/08 05:30:27;;;;;;;19.63;3.08;;;;;;;16.46;100.00;99113.34;4964108;28;20039;-76
2023/07/08 05:32:53;;;;;;;14.90;2.88;;;;;;;16.42;100.00;99098.81;4971156;28;20027;-76
2023/07/08 05:35:19;;;;;;;18.27;3.42;;;;;;;16.39;100.00;99123.25;4938529;29;20043;-77
2023/07/08 05:37:46;;;;;;;23.92;4.22;;;;;;;16.36;100.00;99113.00;4936206;29;20039;-77
2023/07/08 05:40:12;;;;;;;18.27;2.72;;;;;;;16.34;100.00;99097.22;4970562;28;20512;-76
2023/07/08 05:42:38;;;;;;;17.10;2.83;;;;;;;16.29;100.00;99107.75;4952647;28;20038;-77
2023/07/08 05:45:06;;;;;;;18.30;2.88;;;;;;;16.29;100.00;99112.25;4950621;28;20035;-77
2023/07/08 05:47:32;;;;;;;17.98;3.03;;;;;;;16.23;100.00;99112.06;4953695;28;20121;-76
2023/07/08 05:49:58;;;;;;;10.48;2.38;;;;;;;16.20;100.00;99101.00;4959625;28;20035;-77
2023/07/08 05:52:24;;;;;;;20.88;3.42;;;;;;;16.19;100.00;99100.22;4949569;28;20053;-78
2023/07/08 05:54:49;;;;;;;19.27;3.10;;;;;;;16.17;100.00;99086.28;4944762;28;20093;-77
2023/07/08 05:57:15;;;;;;;14.10;2.40;;;;;;;16.12;100.00;99096.75;4922146;29;20035;-76
2023/07/08 05:59:43;;;;;;;24.77;3.28;;;;;;;16.17;100.00;99112.09;4937114;29;20031;-76
2023/07/08 06:02:10;;;;;;;19.85;4.22;;;;;;;16.19;100.00;99121.53;4938175;29;20057;-77
2023/07/08 06:04:36;;;;;;;18.20;3.58;;;;;;;16.11;100.00;99140.44;4958382;28;20043;-76
2023/07/08 06:07:02;;;;;;;23.42;3.17;;;;;;;16.09;100.00;99143.31;4941793;28;20038;-77
2023/07/08 06:09:27;;;;;;;16.95;3.42;;;;;;;16.06;100.00;99150.91;4942387;28;20441;-76
2023/07/08 06:11:54;;;;;;;14.43;2.60;;;;;;;16.07;100.00;99141.91;4923175;29;20106;-76
2023/07/08 06:14:19;;;;;;;21.67;3.55;;;;;;;16.04;100.00;99169.78;4939495;29;20482;-75
2023/07/08 06:16:45;;;;;;;16.38;3.25;;;;;;;16.05;100.00;99174.09;4937978;28;20031;-76
2023/07/08 06:19:11;;;;;;;19.02;3.20;;;;;;;15.98;100.00;99179.44;4918093;28;20445;-75
2023/07/08 06:21:37;;;;;;;19.05;3.22;;;;;;;15.96;100.00;99165.47;4940702;29;20035;-76
2023/07/08 06:24:04;;;;;;;11.50;2.67;;;;;;;15.97;100.00;99176.97;4952909;28;20034;-76
2023/07/08 06:26:30;;;;;;;14.05;2.45;;;;;;;15.97;100.00;99184.97;4922247;28;20110;-76
2023/07/08 06:28:56;;;;;;;17.75;2.90;;;;;;;16.00;100.00;99195.22;4937883;28;20045;-75
2023/07/08 06:31:21;;;;;;;18.02;2.70;;;;;;;16.00;100.00;99189.91;4953692;28;20027;-76
2023/07/08 06:33:48;;;;;;;17.83;3.15;;;;;;;16.00;100.00;99187.22;4930712;28;20109;-76
2023/07/08 06:36:13;;;;;;;11.52;1.70;;;;;;;15.95;100.00;99200.34;4940977;29;20078;-76
2023/07/08 06:38:39;;;;;;;17.60;2.88;;;;;;;15.95;100.00;99225.16;4926807;28;20114;-76
2023/07/08 06:41:05;;;;;;;12.90;2.28;;;;;;;15.91;100.00;99210.59;4941537;28;20046;-76
2023/07/08 06:43:31;;;;;;;14.25;2.38;;;;;;;15.93;100.00;99227.19;4961781;28;20028;-76
2023/07/08 06:46:06;;;;;;;11.18;2.38;;;;;;;15.94;100.00;99250.13;4934915;29;20057;-77
2023/07/08 06:48:32;;;;;;;14.05;2.25;;;;;;;15.95;100.00;99266.97;4954355;28;20482;-77
2023/07/08 06:50:58;;;;;;;12.57;2.78;;;;;;;15.96;100.00;99255.25;4932224;28;20033;-77
2023/07/08 06:53:24;;;;;;;10.50;2.53;;;;;;;15.94;100.00;99265.34;4948509;28;20023;-76
2023/07/08 06:55:50;;;;;;;17.23;3.47;;;;;;;15.91;100.00;99274.53;4955165;28;20042;-77
2023/07/08 06:58:16;;;;;;;19.52;2.30;;;;;;;15.91;100.00;99297.72;4942841;28;20041;-76
2023/07/08 07:00:43;;;;;;;8.77;2.00;;;;;;;15.94;100.00;99310.63;4972206;28;20105;-75
2023/07/08 07:03:10;;;;;;;14.13;1.77;;;;;;;15.92;100.00;99302.84;4969679;28;20405;-75
2023/07/08 07:05:36;;;;;;;15.63;2.38;;;;;;;15.91;100.00;99319.84;4931039;28;20110;-76
2023/07/08 07:08:01;;;;;;;13.40;2.25;;;;;;;15.89;100.00;99316.59;4954042;28;20185;-77
2023/07/08 07:10:27;;;;;;;15.95;2.40;;;;;;;15.87;100.00;99319.47;4937246;28;20031;-76
2023/07/08 07:12:53;;;;;;;10.32;2.50;;;;;;;15.86;100.00;99346.31;4922070;28;20039;-76
2023/07/08 07:15:19;;;;;;;15.80;2.33;;;;;;;15.84;100.00;99346.50;4955478;28;20033;-76
2023/07/08 07:17:45;;;;;;;7.63;1.55;;;;;;;15.77;100.00;99345.69;4954961;28;20030;-76
2023/07/08 07:20:11;;;;;;;12.95;1.60;;;;;;;15.83;100.00;99370.69;4954721;28;20042;-75
2023/07/08 07:22:37;;;;;;;7.93;1.15;;;;;;;15.80;100.00;99371.13;4966177;28;20070;-77
2023/07/08 07:25:04;;;;;;;10.07;1.55;;;;;;;15.83;100.00;99384.81;4960676;28;20035;-76
2023/07/08 07:27:30;;;;;;;5.20;0.90;;;;;;;15.80;100.00;99381.78;4932471;28;20392;-76
2023/07/08 07:29:56;;;;;;;4.40;1.00;;;;;;;15.81;100.00;99402.06;4954718;28;20034;-75
2023/07/08 07:32:24;;;;;;;9.55;1.65;;;;;;;15.87;100.00;99411.88;4938969;28;20049;-77
2023/07/08 07:34:50;;;;;;;6.53;0.82;;;;;;;15.88;100.00;99424.19;4974532;28;20045;-76
2023/07/08 07:37:18;;;;;;;5.40;1.35;;;;;;;15.87;100.00;99410.06;4954854;28;20035;-76
2023/07/08 07:39:44;;;;;;;5.65;1.00;;;;;;;15.84;100.00;99420.28;4938689;28;20035;-76
2023/07/08 07:42:11;;;;;;;4.03;0.90;;;;;;;15.79;100.00;99422.75;4958328;28;20053;-76
2023/07/08 07:44:39;;;;;;;8.40;1.20;;;;;;;15.80;100.00;99429.72;4970893;28;20039;-75
2023/07/08 07:47:06;;;;;;;10.27;1.42;;;;;;;15.75;100.00;99428.47;4954496;28;20512;-76
2023/07/08 07:49:32;;;;;;;5.35;1.17;;;;;;;15.84;100.00;99441.59;4970880;28;20046;-76
2023/07/08 07:51:58;;;;;;;5.28;1.40;;;;;;;15.95;100.00;99442.84;4958190;28;20042;-76
2023/07/08 07:54:24;;;;;;;9.13;1.38;;;;;;;16.10;100.00;99450.69;4960649;28;20058;-77
2023/07/08 07:56:49;;;;;;;7.63;1.15;;;;;;;16.13;100.00;99458.25;4967827;28;20043;-76
2023/07/08 07:59:15;;;;;;;7.50;1.25;;;;;;;16.09;100.00;99459.69;4970076;28;20041;-76
2023/07/08 08:01:42;;;;;;;13.68;1.48;;;;;;;16.02;100.00;99475.69;4961464;28;20035;-76
2023/07/08 08:04:09;;;;;;;6.57;0.93;;;;;;;15.99;100.00;99474.22;4954554;28;20057;-76
2023/07/08 08:06:35;;;;;;;4.22;1.15;;;;;;;15.92;100.00;99481.38;4938582;28;20042;-75
2023/07/08 08:09:01;;;;;;;6.53;1.33;;;;;;;16.01;100.00;99482.03;4938993;28;20043;-75
2023/07/08 08:11:27;;;;;;;5.68;1.08;;;;;;;16.24;100.00;99478.94;4953993;28;20041;-77
2023/07/08 08:13:53;;;;;;;6.00;0.70;;;;;;;16.42;100.00;99485.50;4973025;28;20362;-77
2023/07/08 08:16:20;;;;;;;2.88;0.80;;;;;;;16.58;100.00;99489.59;4953342;28;20031;-80
2023/07/08 08:18:46;;;;;;;4.80;0.60;;;;;;;16.59;100.00;99503.75;4954127;28;20026;-80
2023/07/08 08:21:13;;;;;;;5.28;0.65;;;;;;;16.54;100.00;99520.38;4951387;28;20046;-75
2023/07/08 08:23:39;;;;;;;4.88;0.50;;;;;;;16.66;100.00;99520.56;4970143;28;20382;-77
2023/07/08 08:26:05;;;;;;;5.82;0.45;;;;;;;16.80;100.00;99539.22;4961946;28;20038;-76
2023/07/08 08:28:30;;;;;;;3.92;0.80;;;;;;;16.97;100.00;99543.09;4955570;28;20034;-74
2023/07/08 08:30:56;;;;;;;3.55;0.60;;;;;;;17.15;100.00;99547.00;4970738;28;20035;-75
2023/07/08 08:33:22;;;;;;;5.22;0.47;;;;;;;17.28;100.00;99569.34;4937787;28;20030;-76
2023/07/08 08:35:48;;;;;;;6.90;0.80;;;;;;;17.33;100.00;99583.69;4899018;28;20035;-76
2023/07/08 08:38:14;;;;;;;4.90;0.60;;;;;;;17.31;100.00;99591.09;4951404;28;20051;-75
2023/07/08 08:40:42;;;;;;;6.25;0.70;;;;;;;17.43;100.00;99609.13;4935307;28;20091;-76
2023/07/08 08:43:34;;;;;;;2.67;0.68;;;;;;;17.42;100.00;99612.84;4960013;28;20548;-76
2023/07/08 08:46:24;;;;;;;5.40;0.55;;;;;;;17.34;100.00;99628.06;4951557;28;20039;-75
2023/07/08 08:49:11;;;;;;;4.18;0.65;;;;;;;17.39;100.00;99626.63;4930299;28;20043;-75
2023/07/08 08:51:37;;;;;;;3.50;0.80;;;;;;;17.28;100.00;99639.56;4966788;28;20104;-76
2023/07/08 08:54:03;;;;;;;3.28;0.55;;;;;;;17.22;100.00;99643.09;4935277;29;20043;-74
2023/07/08 08:56:40;;;;;;;2.20;0.30;;;;;;;17.31;100.00;99657.06;4955301;28;20035;-74
2023/07/08 08:59:29;;;;;;;3.25;0.57;;;;;;;17.50;100.00;99671.41;4970381;28;20118;-75
2023/07/08 09:01:56;;;;;;;3.65;0.70;;;;;;;17.55;100.00;99684.13;4966475;28;20046;-76
2023/07/08 09:04:32;;;;;;;3.92;0.55;;;;;;;17.58;100.00;99689.84;4952098;28;20111;-76
2023/07/08 09:07:08;;;;;;;6.80;1.02;;;;;;;17.56;100.00;99685.75;4952753;28;20047;-76
2023/07/08 09:09:48;;;;;;;6.53;1.17;;;;;;;17.39;100.00;99704.09;4968584;28;20082;-76
2023/07/08 09:12:22;;;;;;;8.20;0.98;;;;;;;17.33;100.00;99714.56;4946651;29;20118;-76
2023/07/08 09:14:49;;;;;;;5.47;0.93;;;;;;;17.26;100.00;99715.59;4967840;28;20074;-75
2023/07/08 09:17:34;;;;;;;5.32;1.00;;;;;;;17.27;100.00;99722.56;4968876;28;20110;-78
2023/07/08 09:20:03;;;;;;;5.30;0.95;;;;;;;17.22;100.00;99731.22;4966978;28;20046;-80
2023/07/08 09:22:48;;;;;;;6.28;1.65;;;;;;;17.27;100.00;99728.75;4967115;28;20039;-80
2023/07/08 09:25:35;;;;;;;5.40;1.27;;;;;;;17.30;100.00;99730.16;4937722;29;20375;-82
2023/07/08 09:28:02;;;;;;;6.10;1.10;;;;;;;17.25;100.00;99736.13;4937200;29;20074;-78
2023/07/08 09:30:31;;;;;;;5.30;1.33;;;;;;;17.18;100.00;99733.50;4947373;28;20035;-80
2023/07/08 09:32:57;;;;;;;7.60;1.05;;;;;;;17.07;100.00;99750.88;4940470;29;20039;-79
2023/07/08 09:35:29;;;;;;;9.27;1.08;;;;;;;17.01;100.00;99758.91;4964147;28;20059;-79
2023/07/08 09:37:55;;;;;;;8.60;1.17;;;;;;;16.98;100.00;99744.09;4950027;28;20035;-81
2023/07/08 09:40:32;;;;;;;12.07;1.63;;;;;;;17.13;100.00;99737.78;4982560;28;20445;-84
2023/07/08 09:43:15;;;;;;;5.38;1.13;;;;;;;17.31;100.00;99751.34;4931200;29;20036;-82
2023/07/08 09:45:46;;;;;;;10.02;1.50;;;;;;;17.51;100.00;99731.81;4958372;28;20036;-81
2023/07/08 09:48:18;;;;;;;12.45;2.42;;;;;;;17.55;100.00;99745.56;4969995;28;20046;-80
2023/07/08 09:50:47;;;;;;;10.88;1.40;;;;;;;17.66;100.00;99752.13;4969656;28;20035;-81
2023/07/08 09:53:14;;;;;;;5.20;1.17;;;;;;;17.70;100.00;99751.50;4936362;28;20043;-82
2023/07/08 09:55:40;;;;;;;11.40;1.40;;;;;;;17.80;100.00;99758.25;4955204;29;20032;-80
2023/07/08 09:58:13;;;;;;;8.60;1.63;;;;;;;17.81;100.00;99759.91;4966641;28;20050;-80
2023/07/08 10:00:41;;;;;;;11.10;1.58;;;;;;;17.81;100.00;99774.09;4951158;28;20042;-81
2023/07/08 10:03:23;;;;;;;14.93;2.70;;;;;;;17.73;100.00;99787.66;4968882;28;20038;-80
2023/07/08 10:05:51;;;;;;;6.72;1.25;;;;;;;17.64;100.00;99799.63;4969458;28;20039;-80
2023/07/08 10:08:20;;;;;;;11.55;1.67;;;;;;;17.65;100.00;99807.41;4959342;28;20042;-81
2023/07/08 10:10:50;;;;;;;8.05;1.73;;;;;;;17.64;100.00;99807.63;4953469;28;20046;-82
2023/07/08 10:13:40;;;;;;;9.77;1.35;;;;;;;17.71;100.00;99819.94;4952070;28;20043;-82
2023/07/08 10:16:20;;;;;;;12.65;1.90;;;;;;;17.75;100.00;99836.41;4961718;28;20042;-82
2023/07/08 10:18:46;;;;;;;8.98;1.30;;;;;;;17.74;100.00;99832.09;4937354;29;20049;-82
2023/07/08 10:21:27;;;;;;;6.18;1.45;;;;;;;17.79;100.00;99847.50;4969295;28;20031;-81
2023/07/08 10:24:27;;;;;;;8.77;1.52;;;;;;;17.76;100.00;99856.75;4943625;29;20039;-82
2023/07/08 10:27:16;;;;;;;5.90;1.17;;;;;;;17.86;100.00;99842.97;4969116;28;20051;-79
2023/07/08 10:30:00;;;;;;;8.27;1.35;;;;;;;17.92;100.00;99844.81;4954171;28;20572;-81
2023/07/08 10:32:26;;;;;;;6.05;1.25;;;;;;;17.80;100.00;99851.81;4968958;28;20035;-80
2023/07/08 10:34:52;;;;;;;8.45;1.27;;;;;;;17.81;100.00;99851.63;4952202;28;20027;-83
2023/07/08 10:37:37;;;;;;;10.85;2.00;;;;;;;17.93;100.00;99846.44;4954437;28;20037;-81
2023/07/08 10:40:02;;;;;;;7.90;1.60;;;;;;;17.99;100.00;99836.78;4950348;28;20035;-82
2023/07/08 10:42:59;;;;;;;8.25;1.98;;;;;;;18.12;100.00;99846.66;4937331;29;20494;-81
2023/07/08 10:45:31;;;;;;;5.03;1.63;;;;;;;18.05;100.00;99865.38;4953012;29;20035;-82
2023/07/08 10:48:19;;;;;;;11.05;1.67;;;;;;;18.01;100.00;99872.16;4951906;28;20039;-81
2023/07/08 10:50:57;;;;;;;5.82;1.05;;;;;;;17.94;100.00;99893.56;4952430;28;20069;-83
2023/07/08 10:53:48;;;;;;;7.10;1.70;;;;;;;18.06;100.00;99898.28;4952121;28;20845;-81
2023/07/08 10:56:20;;;;;;;8.73;1.77;;;;;;;18.25;100.00;99895.81;4925131;29;20047;-79
2023/07/08 10:59:23;;;;;;;7.90;1.75;;;;;;;18.33;100.00;99898.28;4968351;28;20035;-79
2023/07/08 11:02:14;;;;;;;6.38;1.13;;;;;;;18.39;100.00;99892.06;4949008;29;20040;-80
2023/07/08 11:04:49;;;;;;;9.23;1.40;;;;;;;18.37;100.00;99902.16;4963463;28;20123;-82
2023/07/08 11:07:23;;;;;;;7.13;1.17;;;;;;;18.48;100.00;99892.66;4952272;29;20034;-80
2023/07/08 11:09:55;;;;;;;5.28;1.17;;;;;;;18.51;100.00;99894.06;4952465;29;20069;-80
2023/07/08 11:12:45;;;;;;;8.02;1.80;;;;;;;18.65;100.00;99894.88;4964482;28;20034;-80
2023/07/08 11:15:15;;;;;;;10.85;1.52;;;;;;;18.75;100.00;99894.41;4947508;28;20062;-80
2023/07/08 11:18:06;;;;;;;8.40;1.52;;;;;;;18.74;100.00;99907.00;4969497;28;20047;-78
2023/07/08 11:20:41;;;;;;;8.52;1.30;;;;;;;18.59;100.00;99909.91;4943337;29;20031;-82
2023/07/08 11:23:16;;;;;;;11.88;1.65;;;;;;;18.58;100.00;99901.09;4953480;28;20067;-82
2023/07/08 11:25:45;;;;;;;8.93;1.35;;;;;;;18.51;100.00;99900.25;4953992;29;20032;-82
2023/07/08 11:28:18;;;;;;;10.75;1.65;;;;;;;18.65;100.00;99917.09;4954409;28;20047;-81
2023/07/08 11:30:47;;;;;;;10.40;1.92;;;;;;;18.87;100.00;99921.34;4968594;28;20027;-82
2023/07/08 11:33:17;;;;;;;8.48;1.40;;;;;;;19.17;100.00;99918.16;4952894;28;20030;-81